sensor_id;sensor_type;location;lat;lon;timestamp;P1;durP1;ratioP1;P2;durP2;ratioP2
3735;SDS011;1883;48.202;16.310;2022-08-21T00:32:26;12.27;;;6.70;;
3735;SDS011;1883;48.202;16.310;2022-08-21T00:34:54;14.07;;;7.50;;
3735;SDS011;1883;48.202;16.310;2022-08-21T00:39:57;15.47;;;9.50;;
3735;SDS011;1883;48.202;16.310;2022-08-21T00:57:54;13.90;;;7.60;;
3735;SDS011;1883;48.202;16.310;2022-08-21T01:00:24;15.47;;;8.60;;
3735;SDS011;1883;48.202;16.310;2022-08-21T01:02:54;12.77;;;7.27;;
3735;SDS011;1883;48.202;16.310;2022-08-21T01:05:21;15.17;;;9.23;;
3735;SDS011;1883;48.202;16.310;2022-08-21T01:07:48;15.03;;;8.00;;
3735;SDS011;1883;48.202;16.310;2022-08-21T01:10:15;12.70;;;6.90;;
3735;SDS011;1883;48.202;16.310;2022-08-21T01:12:43;17.47;;;8.40;;
3735;SDS011;1883;48.202;16.310;2022-08-21T01:15:12;15.77;;;9.23;;
3735;SDS011;1883;48.202;16.310;2022-08-21T01:17:41;15.50;;;8.30;;
3735;SDS011;1883;48.202;16.310;2022-08-21T01:20:09;17.73;;;10.30;;
3735;SDS011;1883;48.202;16.310;2022-08-21T01:22:38;17.53;;;8.40;;
3735;SDS011;1883;48.202;16.310;2022-08-21T01:25:06;17.10;;;9.03;;
3735;SDS011;1883;48.202;16.310;2022-08-21T01:30:10;16.77;;;7.87;;
3735;SDS011;1883;48.202;16.310;2022-08-21T01:32:40;16.00;;;9.13;;
3735;SDS011;1883;48.202;16.310;2022-08-21T01:35:08;14.60;;;8.33;;
3735;SDS011;1883;48.202;16.310;2022-08-21T01:37:36;18.63;;;9.30;;
3735;SDS011;1883;48.202;16.310;2022-08-21T01:40:06;16.37;;;8.80;;
3735;SDS011;1883;48.202;16.310;2022-08-21T01:42:35;14.80;;;8.53;;
3735;SDS011;1883;48.202;16.310;2022-08-21T01:45:03;16.10;;;9.50;;
3735;SDS011;1883;48.202;16.310;2022-08-21T01:55:19;14.53;;;8.20;;
3735;SDS011;1883;48.202;16.310;2022-08-21T01:57:48;16.43;;;9.40;;
3735;SDS011;1883;48.202;16.310;2022-08-21T02:00:16;18.73;;;9.00;;
3735;SDS011;1883;48.202;16.310;2022-08-21T02:02:47;17.67;;;9.60;;
3735;SDS011;1883;48.202;16.310;2022-08-21T02:05:15;17.23;;;10.10;;
3735;SDS011;1883;48.202;16.310;2022-08-21T02:07:44;17.00;;;10.10;;
3735;SDS011;1883;48.202;16.310;2022-08-21T02:10:20;20.40;;;11.27;;
3735;SDS011;1883;48.202;16.310;2022-08-21T02:12:51;18.20;;;10.07;;
3735;SDS011;1883;48.202;16.310;2022-08-21T02:15:18;15.17;;;8.27;;
3735;SDS011;1883;48.202;16.310;2022-08-21T02:20:22;17.33;;;9.07;;
3735;SDS011;1883;48.202;16.310;2022-08-21T02:22:52;22.80;;;11.10;;
3735;SDS011;1883;48.202;16.310;2022-08-21T02:25:21;18.03;;;9.93;;
3735;SDS011;1883;48.202;16.310;2022-08-21T02:27:50;13.37;;;7.47;;
3735;SDS011;1883;48.202;16.310;2022-08-21T02:30:19;19.10;;;10.20;;
3735;SDS011;1883;48.202;16.310;2022-08-21T02:32:48;15.73;;;8.83;;
3735;SDS011;1883;48.202;16.310;2022-08-21T02:35:15;15.30;;;8.13;;
3735;SDS011;1883;48.202;16.310;2022-08-21T02:37:44;16.40;;;7.97;;
3735;SDS011;1883;48.202;16.310;2022-08-21T02:40:14;12.73;;;6.30;;
3735;SDS011;1883;48.202;16.310;2022-08-21T02:42:43;12.13;;;6.10;;
3735;SDS011;1883;48.202;16.310;2022-08-21T02:45:11;14.73;;;8.10;;
3735;SDS011;1883;48.202;16.310;2022-08-21T02:47:39;14.90;;;8.50;;
3735;SDS011;1883;48.202;16.310;2022-08-21T02:50:06;19.80;;;10.00;;
3735;SDS011;1883;48.202;16.310;2022-08-21T02:52:34;18.67;;;9.70;;
3735;SDS011;1883;48.202;16.310;2022-08-21T02:55:02;19.50;;;11.20;;
3735;SDS011;1883;48.202;16.310;2022-08-21T02:57:30;19.03;;;11.33;;
3735;SDS011;1883;48.202;16.310;2022-08-21T02:59:59;16.90;;;9.70;;
3735;SDS011;1883;48.202;16.310;2022-08-21T03:02:26;21.07;;;11.40;;
3735;SDS011;1883;48.202;16.310;2022-08-21T03:04:53;21.30;;;11.10;;
3735;SDS011;1883;48.202;16.310;2022-08-21T03:07:20;16.70;;;10.50;;
3735;SDS011;1883;48.202;16.310;2022-08-21T03:09:47;18.77;;;10.60;;
3735;SDS011;1883;48.202;16.310;2022-08-21T03:12:14;17.33;;;9.13;;
3735;SDS011;1883;48.202;16.310;2022-08-21T03:17:13;20.30;;;9.83;;
3735;SDS011;1883;48.202;16.310;2022-08-21T03:19:40;14.03;;;8.10;;
3735;SDS011;1883;48.202;16.310;2022-08-21T03:22:07;13.73;;;8.77;;
3735;SDS011;1883;48.202;16.310;2022-08-21T03:24:34;14.43;;;8.30;;
3735;SDS011;1883;48.202;16.310;2022-08-21T03:27:03;15.67;;;9.13;;
3735;SDS011;1883;48.202;16.310;2022-08-21T03:29:30;14.90;;;8.60;;
3735;SDS011;1883;48.202;16.310;2022-08-21T03:31:57;12.27;;;7.43;;
3735;SDS011;1883;48.202;16.310;2022-08-21T03:34:25;10.97;;;6.90;;
3735;SDS011;1883;48.202;16.310;2022-08-21T03:36:53;15.43;;;7.60;;
3735;SDS011;1883;48.202;16.310;2022-08-21T03:39:20;12.33;;;6.07;;
3735;SDS011;1883;48.202;16.310;2022-08-21T03:41:47;13.73;;;7.30;;
3735;SDS011;1883;48.202;16.310;2022-08-21T03:44:14;19.60;;;6.03;;
3735;SDS011;1883;48.202;16.310;2022-08-21T03:46:42;9.30;;;4.87;;
3735;SDS011;1883;48.202;16.310;2022-08-21T03:49:16;10.30;;;6.13;;
3735;SDS011;1883;48.202;16.310;2022-08-21T03:51:44;7.93;;;4.73;;
3735;SDS011;1883;48.202;16.310;2022-08-21T03:54:11;9.37;;;5.60;;
3735;SDS011;1883;48.202;16.310;2022-08-21T03:56:38;8.87;;;4.97;;
3735;SDS011;1883;48.202;16.310;2022-08-21T03:59:05;8.43;;;4.93;;
3735;SDS011;1883;48.202;16.310;2022-08-21T23:48:06;3.40;;;1.00;;
